createdAt,value
2023-04-21T00:00:54.891Z,5.85
2023-04-21T00:03:23.851Z,5.82
2023-04-21T00:05:51.074Z,5.76
2023-04-21T00:08:18.586Z,5.78
2023-04-21T00:10:46.804Z,5.74
2023-04-21T00:13:14.287Z,5.81
2023-04-21T00:15:41.171Z,5.80
2023-04-21T00:18:08.205Z,5.77
2023-04-21T00:20:35.051Z,5.87
2023-04-21T00:23:01.863Z,5.83
2023-04-21T00:25:28.515Z,5.91
2023-04-21T00:27:55.339Z,5.98
2023-04-21T00:30:22.013Z,6.06
2023-04-21T00:32:48.673Z,6.09
2023-04-21T00:35:15.492Z,6.10
2023-04-21T00:37:42.225Z,6.08
2023-04-21T00:40:11.719Z,6.10
2023-04-21T00:42:40.086Z,6.12
2023-04-21T00:45:07.168Z,6.13
2023-04-21T00:47:33.917Z,6.19
2023-04-21T00:50:00.779Z,6.22
2023-04-21T00:52:28.381Z,6.13
2023-04-21T00:54:55.250Z,6.05
2023-04-21T00:57:22.014Z,5.90
2023-04-21T00:59:49.881Z,5.86
2023-04-21T01:02:18.129Z,5.78
2023-04-21T01:04:45.777Z,5.75
2023-04-21T01:07:12.829Z,5.63
2023-04-21T01:09:39.685Z,5.58
2023-04-21T01:12:10.603Z,5.64
2023-04-21T01:14:38.758Z,5.54
2023-04-21T01:17:06.117Z,5.37
2023-04-21T01:19:34.776Z,5.22
2023-04-21T01:22:06.445Z,5.20
2023-04-21T01:24:40.450Z,5.22
2023-04-21T01:27:19.244Z,5.30
2023-04-21T01:29:49.191Z,5.14
2023-04-21T01:32:18.474Z,5.15
2023-04-21T01:34:46.315Z,5.10
2023-04-21T01:37:15.796Z,5.05
2023-04-21T01:39:44.264Z,5.25
2023-04-21T01:42:12.010Z,5.22
2023-04-21T01:44:39.438Z,5.24
2023-04-21T01:47:06.927Z,5.40
2023-04-21T01:49:33.517Z,5.42
2023-04-21T01:52:00.193Z,5.27
2023-04-21T01:54:26.905Z,5.33
2023-04-21T01:56:53.733Z,5.40
2023-04-21T01:59:21.079Z,5.28
2023-04-21T02:01:47.967Z,5.37
2023-04-21T02:04:14.750Z,5.49
2023-04-21T02:06:41.551Z,5.38
2023-04-21T02:09:08.163Z,5.48
2023-04-21T02:11:35.035Z,5.47
2023-04-21T02:14:01.752Z,5.43
2023-04-21T02:16:28.538Z,5.27
2023-04-21T02:18:59.877Z,5.22
2023-04-21T02:21:27.775Z,5.30
2023-04-21T02:23:54.662Z,5.60
2023-04-21T02:26:21.363Z,5.58
2023-04-21T02:28:48.210Z,5.88
2023-04-21T02:31:16.216Z,5.77
2023-04-21T02:33:42.926Z,5.80
2023-04-21T02:36:11.439Z,5.72
2023-04-21T02:38:38.059Z,5.72
2023-04-21T02:41:04.710Z,5.62
2023-04-21T02:43:31.343Z,5.71
2023-04-21T02:45:58.564Z,5.74
2023-04-21T02:48:25.487Z,5.81
2023-04-21T02:50:53.450Z,5.81
2023-04-21T02:53:20.898Z,5.83
2023-04-21T02:55:47.589Z,5.91
2023-04-21T02:58:14.276Z,5.91
2023-04-21T03:00:41.733Z,5.88
2023-04-21T03:03:08.682Z,5.88
2023-04-21T03:05:35.825Z,5.97
2023-04-21T03:08:02.446Z,5.90
2023-04-21T03:10:29.025Z,6.02
2023-04-21T03:12:56.376Z,6.01
2023-04-21T03:15:26.212Z,6.04
2023-04-21T03:17:53.672Z,6.12
2023-04-21T03:20:23.568Z,6.08
2023-04-21T03:22:50.208Z,5.98
2023-04-21T03:25:16.802Z,5.97
2023-04-21T03:27:43.535Z,6.10
2023-04-21T03:30:12.699Z,6.04
2023-04-21T03:32:39.419Z,6.18
2023-04-21T03:35:06.283Z,6.16
2023-04-21T03:37:33.659Z,6.23
2023-04-21T03:40:01.109Z,6.31
2023-04-21T03:42:31.249Z,6.55
2023-04-21T03:45:04.789Z,6.39
2023-04-21T03:47:33.639Z,6.40
2023-04-21T03:50:03.208Z,6.58
2023-04-21T03:52:29.867Z,6.52
2023-04-21T03:54:56.461Z,6.53
2023-04-21T03:57:23.068Z,6.61
2023-04-21T03:59:49.700Z,6.56
2023-04-21T04:02:18.745Z,6.60
2023-04-21T04:04:45.628Z,6.44
2023-04-21T04:07:12.301Z,6.48
2023-04-21T04:09:38.912Z,6.36
2023-04-21T04:12:05.660Z,6.35
2023-04-21T04:14:32.296Z,6.24
2023-04-21T04:16:59.259Z,6.25
2023-04-21T04:19:31.576Z,6.22
2023-04-21T04:21:59.928Z,6.19
2023-04-21T04:24:26.823Z,6.25
2023-04-21T04:26:54.931Z,6.33
2023-04-21T04:29:22.722Z,6.42
2023-04-21T04:31:50.798Z,6.62
2023-04-21T04:34:17.883Z,6.77
2023-04-21T04:36:45.184Z,6.94
2023-04-21T04:39:12.431Z,7.00
2023-04-21T04:41:39.531Z,7.23
2023-04-21T04:44:06.269Z,7.34
2023-04-21T04:46:33.112Z,7.62
2023-04-21T04:49:03.118Z,7.87
2023-04-21T04:51:30.231Z,8.12
2023-04-21T04:53:56.848Z,8.29
2023-04-21T04:56:23.593Z,8.49
2023-04-21T04:58:50.244Z,8.55
2023-04-21T05:01:17.543Z,8.71
2023-04-21T05:03:45.518Z,8.86
2023-04-21T05:06:13.972Z,8.73
2023-04-21T05:08:41.513Z,8.92
2023-04-21T05:11:08.522Z,9.10
2023-04-21T05:13:36.051Z,9.05
2023-04-21T05:16:04.569Z,9.03
2023-04-21T05:18:33.407Z,9.21
2023-04-21T05:21:00.040Z,9.42
2023-04-21T05:23:26.858Z,9.69
2023-04-21T05:25:53.553Z,9.86
2023-04-21T05:28:20.263Z,9.31
2023-04-21T05:30:46.859Z,9.40
2023-04-21T05:33:13.502Z,9.44
2023-04-21T05:35:40.497Z,9.76
2023-04-21T05:38:07.246Z,10.03
2023-04-21T05:40:33.947Z,9.96
2023-04-21T05:43:00.584Z,10.23
2023-04-21T05:45:29.761Z,10.26
2023-04-21T05:47:56.453Z,10.75
2023-04-21T05:50:23.245Z,10.35
2023-04-21T05:52:49.910Z,10.53
2023-04-21T05:55:16.503Z,10.48
2023-04-21T05:57:43.158Z,10.40
2023-04-21T06:00:10.535Z,9.97
2023-04-21T06:02:38.880Z,9.85
2023-04-21T06:05:06.392Z,10.05
2023-04-21T06:07:33.182Z,10.40
2023-04-21T06:09:59.883Z,10.52
2023-04-21T06:12:26.574Z,10.86
2023-04-21T06:14:57.403Z,10.98
2023-04-21T06:17:24.356Z,11.06
2023-04-21T06:19:53.261Z,11.45
2023-04-21T06:22:20.962Z,11.85
2023-04-21T06:24:47.906Z,12.09
2023-04-21T06:27:15.031Z,11.79
2023-04-21T06:29:45.064Z,11.76
2023-04-21T06:32:12.646Z,11.99
2023-04-21T06:34:39.621Z,12.06
2023-04-21T06:37:06.277Z,12.31
2023-04-21T06:39:33.045Z,12.02
2023-04-21T06:41:59.766Z,12.06
2023-04-21T06:44:26.911Z,11.99
2023-04-21T06:46:53.721Z,12.16
2023-04-21T06:49:22.014Z,11.86
2023-04-21T06:51:53.416Z,11.79
2023-04-21T06:54:22.085Z,11.58
2023-04-21T06:56:51.306Z,11.66
2023-04-21T06:59:18.146Z,12.00
2023-04-21T07:01:44.990Z,12.02
2023-04-21T07:04:11.650Z,12.15
2023-04-21T07:06:38.268Z,12.21
2023-04-21T07:09:05.856Z,12.37
2023-04-21T07:11:34.777Z,11.96
2023-04-21T07:14:02.480Z,12.25
2023-04-21T07:16:30.168Z,11.95
2023-04-21T07:18:56.960Z,11.96
2023-04-21T07:21:23.645Z,12.20
2023-04-21T07:23:58.542Z,12.35
2023-04-21T07:26:25.255Z,12.29
2023-04-21T07:28:52.861Z,12.18
2023-04-21T07:31:26.320Z,12.42
2023-04-21T07:33:53.091Z,12.24
2023-04-21T07:36:19.856Z,12.52
2023-04-21T07:38:46.653Z,12.51
2023-04-21T07:41:14.131Z,12.76
2023-04-21T07:43:43.349Z,12.65
2023-04-21T07:46:10.000Z,12.46
2023-04-21T07:48:36.707Z,12.63
2023-04-21T07:51:03.593Z,12.96
2023-04-21T07:53:32.841Z,12.88
2023-04-21T07:55:59.564Z,12.75
2023-04-21T07:58:26.354Z,12.98
2023-04-21T08:00:53.078Z,13.02
2023-04-21T08:03:21.452Z,13.02
2023-04-21T08:05:49.876Z,12.57
2023-04-21T08:08:20.495Z,12.23
2023-04-21T08:10:47.289Z,12.15
2023-04-21T08:13:13.965Z,12.35
2023-04-21T08:15:40.712Z,12.48
2023-04-21T08:18:08.505Z,12.63
2023-04-21T08:20:37.587Z,12.82
2023-04-21T08:23:04.286Z,13.07
2023-04-21T08:25:31.347Z,13.28
2023-04-21T08:27:58.074Z,13.41
2023-04-21T08:30:27.138Z,13.31
2023-04-21T08:32:56.317Z,13.31
2023-04-21T08:35:22.991Z,13.48
2023-04-21T08:37:51.009Z,13.75
2023-04-21T08:40:22.676Z,13.77
2023-04-21T08:42:51.735Z,13.78
2023-04-21T08:45:18.645Z,13.70
2023-04-21T08:47:45.950Z,13.89
2023-04-21T08:50:14.585Z,13.98
2023-04-21T08:52:44.801Z,13.95
2023-04-21T08:55:14.163Z,14.11
2023-04-21T08:57:44.748Z,13.89
2023-04-21T09:00:14.194Z,14.07
2023-04-21T09:03:01.430Z,14.10
2023-04-21T09:05:33.965Z,14.39
2023-04-21T09:08:13.235Z,14.32
2023-04-21T09:10:46.909Z,14.38
2023-04-21T09:13:14.093Z,14.43
2023-04-21T09:15:41.718Z,14.46
2023-04-21T09:18:14.196Z,14.65
2023-04-21T09:20:44.104Z,14.42
2023-04-21T09:23:11.485Z,14.64
2023-04-21T09:25:40.157Z,14.79
2023-04-21T09:28:13.925Z,14.76
2023-04-21T09:30:42.731Z,14.97
2023-04-21T09:33:29.117Z,14.94
2023-04-21T09:36:01.315Z,14.96
2023-04-21T09:38:27.968Z,15.35
2023-04-21T09:40:58.878Z,15.42
2023-04-21T09:43:26.140Z,15.27
2023-04-21T09:45:53.962Z,15.33
2023-04-21T09:48:22.650Z,15.32
2023-04-21T09:53:21.956Z,15.45
2023-04-21T09:55:50.443Z,15.49
2023-04-21T09:58:20.758Z,15.47
2023-04-21T10:00:47.789Z,15.52
2023-04-21T10:03:17.521Z,15.63
2023-04-21T10:05:50.914Z,15.65
2023-04-21T10:08:17.837Z,15.70
2023-04-21T10:10:46.962Z,15.72
2023-04-21T10:13:22.720Z,15.93
2023-04-21T10:15:49.570Z,16.14
2023-04-21T10:18:21.804Z,15.81
2023-04-21T10:20:56.579Z,15.76
2023-04-21T10:23:35.893Z,15.86
2023-04-21T10:26:27.124Z,15.72
2023-04-21T10:29:02.923Z,15.84
2023-04-21T10:31:47.823Z,15.96
2023-04-21T10:34:15.111Z,15.94
2023-04-21T10:36:53.977Z,15.92
2023-04-21T10:39:33.585Z,16.00
2023-04-21T10:42:12.737Z,16.34
2023-04-21T10:44:43.097Z,16.53
2023-04-21T10:47:12.792Z,16.43
2023-04-21T10:49:40.429Z,16.57
2023-04-21T10:52:10.760Z,16.56
2023-04-21T10:54:45.921Z,16.73
2023-04-21T10:57:21.910Z,16.87
2023-04-21T10:59:51.916Z,16.64
2023-04-21T11:02:19.259Z,16.84
2023-04-21T11:04:51.384Z,16.86
2023-04-21T11:07:18.993Z,16.88
2023-04-21T11:09:47.815Z,16.93
2023-04-21T11:12:19.464Z,17.00
2023-04-21T11:14:50.811Z,17.19
2023-04-21T11:17:19.444Z,17.26
2023-04-21T11:19:47.130Z,16.97
2023-04-21T11:22:13.968Z,17.04
2023-04-21T11:24:45.528Z,17.06
2023-04-21T11:27:14.305Z,17.21
2023-04-21T11:29:41.843Z,17.08
2023-04-21T11:32:09.445Z,17.01
2023-04-21T11:34:42.239Z,16.93
2023-04-21T11:37:35.777Z,16.87
2023-04-21T11:40:07.047Z,16.99
2023-04-21T11:42:33.687Z,17.10
2023-04-21T11:45:01.070Z,17.30
2023-04-21T11:47:28.713Z,17.40
2023-04-21T11:49:57.156Z,17.25
2023-04-21T11:52:28.756Z,17.39
2023-04-21T11:55:08.310Z,17.65
2023-04-21T11:57:36.423Z,17.89
2023-04-21T12:00:06.652Z,17.80
2023-04-21T12:02:33.922Z,17.68
2023-04-21T12:05:04.031Z,17.61
2023-04-21T12:07:36.148Z,17.63
2023-04-21T12:10:12.911Z,17.52
2023-04-21T12:12:40.524Z,17.62
2023-04-21T12:15:08.575Z,17.53
2023-04-21T12:17:38.446Z,17.48
2023-04-21T12:20:07.052Z,17.66
2023-04-21T12:22:33.833Z,17.76
2023-04-21T12:25:00.560Z,17.86
2023-04-21T12:27:27.759Z,17.84
2023-04-21T12:29:54.554Z,18.01
2023-04-21T12:32:21.529Z,18.00
2023-04-21T12:34:48.275Z,18.01
2023-04-21T12:37:15.034Z,17.93
2023-04-21T12:39:44.478Z,17.91
2023-04-21T12:42:11.298Z,17.75
2023-04-21T12:44:38.740Z,17.76
2023-04-21T12:47:05.509Z,17.81
2023-04-21T12:49:32.460Z,17.78
2023-04-21T12:51:59.628Z,17.72
2023-04-21T12:54:26.335Z,17.81
2023-04-21T12:56:52.994Z,17.76
2023-04-21T12:59:27.064Z,17.85
2023-04-21T13:01:54.939Z,17.77
2023-04-21T13:04:22.022Z,17.89
2023-04-21T13:06:54.691Z,17.79
2023-04-21T13:09:21.368Z,17.77
2023-04-21T13:11:47.998Z,17.86
2023-04-21T13:14:15.872Z,17.75
2023-04-21T13:16:43.341Z,17.82
2023-04-21T13:19:12.427Z,17.90
2023-04-21T13:21:39.121Z,17.84
2023-04-21T13:24:06.027Z,17.94
2023-04-21T13:26:36.026Z,17.83
2023-04-21T13:29:03.983Z,17.87
2023-04-21T13:31:30.906Z,17.88
2023-04-21T13:33:59.580Z,17.96
2023-04-21T13:36:26.966Z,17.85
2023-04-21T13:38:56.629Z,18.01
2023-04-21T13:41:23.318Z,18.01
2023-04-21T13:43:50.191Z,17.98
2023-04-21T13:46:16.897Z,17.75
2023-04-21T13:48:45.255Z,17.80
2023-04-21T13:51:11.927Z,17.98
2023-04-21T13:53:38.590Z,17.80
2023-04-21T13:56:07.266Z,17.65
2023-04-21T13:58:36.273Z,17.51
2023-04-21T14:01:05.341Z,17.43
2023-04-21T14:03:37.276Z,17.68
2023-04-21T14:06:07.485Z,17.77
2023-04-21T14:08:37.286Z,17.93
2023-04-21T14:11:04.961Z,18.09
2023-04-21T14:13:41.881Z,18.17
2023-04-21T14:16:21.943Z,18.11
2023-04-21T14:18:48.719Z,18.14
2023-04-21T14:21:15.423Z,17.98
2023-04-21T14:23:42.299Z,18.06
2023-04-21T14:26:11.871Z,18.14
2023-04-21T14:28:38.617Z,18.03
2023-04-21T14:31:05.915Z,18.02
2023-04-21T14:33:33.374Z,18.06
2023-04-21T14:36:08.215Z,18.06
2023-04-21T14:38:35.806Z,17.89
2023-04-21T14:41:04.847Z,18.01
2023-04-21T14:43:34.706Z,18.03
2023-04-21T14:46:02.308Z,18.00
2023-04-21T14:48:29.681Z,18.12
2023-04-21T14:50:59.637Z,17.99
2023-04-21T14:53:36.272Z,18.02
2023-04-21T14:56:05.565Z,18.02
2023-04-21T14:58:32.386Z,18.02
2023-04-21T15:01:04.252Z,18.03
2023-04-21T15:03:31.639Z,18.05
2023-04-21T15:06:02.775Z,18.04
2023-04-21T15:08:29.651Z,18.05
2023-04-21T15:10:56.794Z,18.12
2023-04-21T15:13:23.657Z,18.23
2023-04-21T15:15:52.203Z,18.17
2023-04-21T15:18:19.193Z,18.04
2023-04-21T15:20:46.088Z,18.14
2023-04-21T15:23:13.070Z,18.17
2023-04-21T15:25:40.402Z,18.29
2023-04-21T15:28:10.038Z,18.34
2023-04-21T15:30:36.910Z,18.40
2023-04-21T15:33:03.881Z,18.30
2023-04-21T15:35:30.664Z,18.13
2023-04-21T15:37:59.693Z,17.97
2023-04-21T15:40:26.998Z,18.03
2023-04-21T15:42:53.729Z,18.09
2023-04-21T15:45:21.571Z,18.13
2023-04-21T15:47:48.325Z,18.08
2023-04-21T15:50:15.067Z,17.96
2023-04-21T15:52:43.413Z,17.99
2023-04-21T15:55:13.901Z,18.01
2023-04-21T15:57:40.696Z,17.93
2023-04-21T16:00:10.275Z,17.93
2023-04-21T16:02:37.470Z,17.96
2023-04-21T16:05:04.756Z,17.87
2023-04-21T16:07:31.965Z,17.91
2023-04-21T16:10:00.403Z,17.93
2023-04-21T16:12:27.441Z,17.90
2023-04-21T16:14:59.562Z,17.84
2023-04-21T16:17:37.246Z,17.85
2023-04-21T16:20:05.752Z,17.69
2023-04-21T16:22:32.545Z,17.65
2023-04-21T16:25:10.821Z,17.68
2023-04-21T16:27:46.287Z,17.63
2023-04-21T16:30:15.690Z,17.64
2023-04-21T16:32:42.448Z,17.61
2023-04-21T16:35:10.031Z,17.63
2023-04-21T16:37:38.301Z,17.49
2023-04-21T16:40:08.641Z,17.48
2023-04-21T16:42:36.204Z,17.46
2023-04-21T16:45:04.670Z,17.43
2023-04-21T16:47:40.404Z,17.36
2023-04-21T16:50:08.886Z,17.44
2023-04-21T16:52:35.551Z,17.35
2023-04-21T16:55:02.192Z,17.36
2023-04-21T16:57:29.767Z,17.31
2023-04-21T16:59:59.309Z,17.21
2023-04-21T17:02:26.079Z,17.16
2023-04-21T17:04:52.859Z,17.14
2023-04-21T17:07:19.537Z,17.11
2023-04-21T17:09:46.413Z,17.05
2023-04-21T17:12:13.049Z,17.11
2023-04-21T17:14:40.606Z,17.12
2023-04-21T17:17:07.462Z,17.00
2023-04-21T17:19:34.306Z,16.91
2023-04-21T17:22:01.165Z,16.75
2023-04-21T17:24:33.052Z,16.98
2023-04-21T17:27:05.042Z,16.76
2023-04-21T17:29:31.949Z,16.78
2023-04-21T17:32:00.204Z,16.70
2023-04-21T17:34:26.973Z,16.60
2023-04-21T17:36:53.756Z,16.58
2023-04-21T17:39:20.407Z,16.57
2023-04-21T17:41:47.945Z,16.49
2023-04-21T17:44:14.536Z,16.38
2023-04-21T17:46:41.772Z,16.34
2023-04-21T17:49:10.838Z,16.20
2023-04-21T17:51:37.565Z,16.08
2023-04-21T17:54:05.236Z,16.10
2023-04-21T17:56:31.878Z,16.14
2023-04-21T17:58:58.582Z,15.97
2023-04-21T18:01:25.632Z,16.01
2023-04-21T18:03:56.506Z,16.12
2023-04-21T18:06:25.630Z,16.07
2023-04-21T18:08:52.243Z,16.02
2023-04-21T18:11:18.991Z,15.93
2023-04-21T18:13:45.581Z,15.79
2023-04-21T18:16:12.292Z,15.79
2023-04-21T18:18:39.318Z,15.91
2023-04-21T18:21:06.077Z,15.66
2023-04-21T18:23:32.728Z,15.75
2023-04-21T18:26:04.888Z,15.52
2023-04-21T18:28:32.034Z,15.70
2023-04-21T18:30:58.756Z,15.38
2023-04-21T18:33:25.548Z,15.37
2023-04-21T18:35:52.442Z,15.37
2023-04-21T18:38:19.058Z,15.40
2023-04-21T18:40:47.995Z,15.44
2023-04-21T18:43:14.878Z,15.39
2023-04-21T18:45:41.692Z,15.21
2023-04-21T18:48:08.631Z,15.34
2023-04-21T18:50:40.842Z,15.28
2023-04-21T18:53:08.574Z,15.35
2023-04-21T18:55:36.320Z,15.25
2023-04-21T18:58:03.214Z,15.13
2023-04-21T19:00:32.011Z,15.14
2023-04-21T19:03:02.177Z,15.11
2023-04-21T19:05:31.114Z,15.00
2023-04-21T19:07:58.275Z,14.86
2023-04-21T19:10:25.053Z,14.79
2023-04-21T19:12:51.766Z,14.76
2023-04-21T19:15:18.608Z,14.78
2023-04-21T19:17:45.432Z,14.80
2023-04-21T19:20:12.624Z,14.53
2023-04-21T19:22:39.405Z,14.57
2023-04-21T19:25:07.151Z,14.63
2023-04-21T19:27:34.134Z,14.38
2023-04-21T19:30:01.053Z,14.50
2023-04-21T19:32:28.030Z,14.64
2023-04-21T19:34:54.960Z,14.83
2023-04-21T19:37:21.810Z,14.77
2023-04-21T19:39:48.486Z,14.79
2023-04-21T19:42:15.083Z,14.66
2023-04-21T19:44:41.785Z,14.67
2023-04-21T19:47:08.491Z,14.69
2023-04-21T19:49:35.591Z,14.71
2023-04-21T19:52:02.320Z,14.56
2023-04-21T19:54:28.988Z,14.49
2023-04-21T19:56:55.696Z,14.29
2023-04-21T19:59:22.350Z,14.49
2023-04-21T20:01:48.993Z,14.31
2023-04-21T20:04:16.513Z,14.35
2023-04-21T20:06:43.921Z,14.21
2023-04-21T20:09:11.028Z,14.13
2023-04-21T20:11:40.332Z,14.07
2023-04-21T20:14:07.034Z,14.23
2023-04-21T20:16:34.398Z,14.20
2023-04-21T20:19:01.171Z,14.14
2023-04-21T20:21:27.958Z,14.00
2023-04-21T20:23:54.652Z,13.89
2023-04-21T20:26:21.435Z,13.74
2023-04-21T20:28:48.115Z,13.80
2023-04-21T20:31:15.223Z,13.82
2023-04-21T20:33:41.913Z,13.84
2023-04-21T20:36:08.630Z,13.80
2023-04-21T20:38:35.701Z,13.86
2023-04-21T20:41:03.336Z,13.76
2023-04-21T20:43:33.203Z,13.56
2023-04-21T20:46:03.491Z,13.73
2023-04-21T20:48:30.543Z,13.59
2023-04-21T20:50:57.290Z,13.68
2023-04-21T20:53:24.337Z,13.48
2023-04-21T20:55:51.227Z,13.51
2023-04-21T20:58:18.006Z,13.34
2023-04-21T21:00:44.799Z,13.27
2023-04-21T21:03:13.737Z,13.20
2023-04-21T21:05:40.895Z,13.31
2023-04-21T21:08:07.863Z,13.27
2023-04-21T21:10:35.357Z,13.24
2023-04-21T21:13:02.077Z,13.19
2023-04-21T21:15:30.482Z,13.16
2023-04-21T21:17:57.564Z,12.92
2023-04-21T21:20:24.425Z,12.83
2023-04-21T21:22:51.115Z,12.88
2023-04-21T21:25:17.831Z,13.00
2023-04-21T21:27:44.523Z,12.86
2023-04-21T21:30:11.418Z,12.94
2023-04-21T21:32:38.211Z,12.71
2023-04-21T21:35:06.909Z,12.87
2023-04-21T21:37:33.658Z,12.78
2023-04-21T21:40:00.439Z,12.65
2023-04-21T21:42:27.059Z,12.69
2023-04-21T21:44:53.857Z,12.53
2023-04-21T21:47:20.844Z,12.66
2023-04-21T21:49:47.559Z,12.82
2023-04-21T21:52:15.091Z,12.57
2023-04-21T21:54:41.684Z,12.54
2023-04-21T21:57:08.636Z,12.42
2023-04-21T21:59:35.546Z,12.69
2023-04-21T22:02:02.345Z,12.50
2023-04-21T22:04:29.088Z,12.53
2023-04-21T22:06:55.805Z,12.54
2023-04-21T22:09:22.489Z,12.63
2023-04-21T22:11:49.173Z,12.67
2023-04-21T22:14:23.486Z,12.58
2023-04-21T22:16:53.040Z,12.56
2023-04-21T22:19:20.414Z,13.10
2023-04-21T22:21:47.476Z,12.87
2023-04-21T22:24:14.704Z,13.23
2023-04-21T22:26:41.970Z,13.25
2023-04-21T22:29:08.607Z,13.18
2023-04-21T22:31:35.475Z,13.22
2023-04-21T22:34:02.245Z,13.05
2023-04-21T22:36:28.880Z,12.87
2023-04-21T22:38:55.575Z,12.98
2023-04-21T22:41:22.684Z,12.83
2023-04-21T22:43:49.427Z,12.83
2023-04-21T22:46:16.140Z,12.85
2023-04-21T22:48:46.389Z,12.86
2023-04-21T22:51:14.386Z,12.93
2023-04-21T22:53:41.131Z,13.10
2023-04-21T22:56:07.911Z,13.06
2023-04-21T22:58:34.463Z,13.06
2023-04-21T23:01:01.877Z,13.05
2023-04-21T23:03:28.732Z,13.09
2023-04-21T23:05:55.708Z,12.98
2023-04-21T23:08:22.388Z,12.88
2023-04-21T23:10:49.036Z,12.69
2023-04-21T23:13:15.678Z,12.45
2023-04-21T23:15:42.334Z,12.10
2023-04-21T23:18:09.031Z,11.75
2023-04-21T23:20:35.858Z,11.85
2023-04-21T23:23:02.528Z,12.09
2023-04-21T23:25:29.210Z,12.00
2023-04-21T23:27:55.773Z,11.96
2023-04-21T23:30:22.399Z,11.77
2023-04-21T23:32:49.119Z,11.76
2023-04-21T23:35:15.938Z,11.70
2023-04-21T23:37:42.690Z,11.99
2023-04-21T23:40:12.557Z,11.88
2023-04-21T23:42:39.530Z,11.70
2023-04-21T23:45:06.880Z,11.91
2023-04-21T23:47:33.877Z,11.85
2023-04-21T23:50:00.651Z,11.64
2023-04-21T23:52:27.377Z,11.34
2023-04-21T23:54:54.079Z,10.99
2023-04-21T23:57:20.935Z,10.71
2023-04-21T23:59:47.836Z,10.52
